Swift Ace — C6XB8 — position and weather

sailwx.info

Track history (hours):
 
Tides and Currents Weather Stations Pressure Air Temp Water Temp Dewpoint Dewpoint Depression Visibility Wind Speed Wind Dir Waves Ship Positions

Swift Ace

Last reported at 2017-Apr-19 15:55 UTC. Time now 2017-Apr-30 20:37 UTC.
Position S 34°47' W 057°30'.
Warning: this ship's position is 11 days out of date.

Length 200 m; draft 8.6 m.

Type: Cargo ship. MMSI: 310968322.

Date/timePositionNaut miles runAvg speedWind from/ knotsBaromVisibWave heightAir tempDewpointWater temp
2017-Apr-19 15:55S 34°47' W 057°30'512.8
2017-Apr-19 15:31S 34°45' W 057°36'713.0
2017-Apr-19 15:00S 34°44' W 057°44'5 9.6
2017-Apr-19 14:30S 34°45' W 057°50'9 9.0
2017-Apr-19 13:31S 34°40' W 057°60'510.4
2017-Apr-19 13:00S 34°39' W 058°06'510.1
2017-Apr-19 12:30S 34°37' W 058°11'  
2017-Apr-12 13:50S 27°49' W 048°05'516.0
2017-Apr-12 13:30S 27°44' W 048°03'18516.9
2017-Apr-12 02:30S 24°54' W 046°40'917.6
2017-Apr-12 02:00S 24°46' W 046°37'917.7
2017-Apr-12 01:30S 24°38' W 046°33'917.8
2017-Apr-12 01:00S 24°30' W 046°29'917.7
2017-Apr-12 00:30S 24°21' W 046°27'917.7
2017-Apr-12 00:00S 24°13' W 046°24'815.5
2017-Apr-11 23:31S 24°05' W 046°22'5 9.9
2017-Apr-11 23:00S 24°01' W 046°20'3 6.9
2017-Apr-11 22:30S 23°59' W 046°17'1 1.9
2017-Apr-11 21:59S 23°58' W 046°18'0 0.0
2017-Apr-11 21:29S 23°58' W 046°18'0 0.0
2017-Apr-11 20:56S 23°58' W 046°18'0 0.0
2017-Apr-11 20:29S 23°58' W 046°18'0 0.0
2017-Apr-11 19:59S 23°58' W 046°18'0 0.0
2017-Apr-11 19:29S 23°58' W 046°18'0 0.0
2017-Apr-11 18:59S 23°58' W 046°18'0 0.0
2017-Apr-11 18:26S 23°58' W 046°18'0 0.0
2017-Apr-11 17:59S 23°58' W 046°18'0 0.0
2017-Apr-11 17:29S 23°58' W 046°18'0 0.0
2017-Apr-11 16:59S 23°58' W 046°18'0 0.0
2017-Apr-11 16:20S 23°58' W 046°18'0 0.0
2017-Apr-11 15:59S 23°58' W 046°18'0 0.0
2017-Apr-11 15:29S 23°58' W 046°18'0 0.0
2017-Apr-11 14:59S 23°58' W 046°18'0 0.0
2017-Apr-11 14:29S 23°58' W 046°18'0 0.0
2017-Apr-11 13:29S 23°58' W 046°18'0 0.0
2017-Apr-11 12:59S 23°58' W 046°18'0 0.0
2017-Apr-11 12:26S 23°58' W 046°18'0 0.0
2017-Apr-11 11:59S 23°58' W 046°18'0 0.0
2017-Apr-11 11:29S 23°58' W 046°18'0 0.0
2017-Apr-11 10:59S 23°58' W 046°18'0 0.0
2017-Apr-11 10:26S 23°58' W 046°18'0 0.0
2017-Apr-11 09:59S 23°58' W 046°18'0 0.0
2017-Apr-11 09:29S 23°58' W 046°18'0 0.0
2017-Apr-11 08:59S 23°58' W 046°18'0 0.0
2017-Apr-11 08:29S 23°58' W 046°18'0 0.0
2017-Apr-11 07:41S 23°58' W 046°18'0 0.0
2017-Apr-11 07:29S 23°58' W 046°18'0 0.0
2017-Apr-11 06:59S 23°58' W 046°18'0 0.0
2017-Apr-11 06:29S 23°58' W 046°18'0 0.0
2017-Apr-11 05:59S 23°58' W 046°18'0 0.0
2017-Apr-11 05:29S 23°58' W 046°18'0 0.0
2017-Apr-11 04:59S 23°58' W 046°18'0 0.0
2017-Apr-11 04:29S 23°58' W 046°18'0 0.0
2017-Apr-11 03:59S 23°58' W 046°18'0 0.0
2017-Apr-11 03:29S 23°58' W 046°18'0 0.0
2017-Apr-11 02:53S 23°58' W 046°18'0 0.0
2017-Apr-11 02:29S 23°58' W 046°18'0 0.0
2017-Apr-11 01:59S 23°58' W 046°18'0 0.0
2017-Apr-11 01:23S 23°58' W 046°18'0 0.0
2017-Apr-11 00:59S 23°58' W 046°18'0 0.0
2017-Apr-11 00:29S 23°58' W 046°18'0 0.0
2017-Apr-10 23:59S 23°58' W 046°18'0 0.0
2017-Apr-10 23:29S 23°58' W 046°18'0 0.0
2017-Apr-10 22:59S 23°58' W 046°18'0 0.0
2017-Apr-10 22:23S 23°58' W 046°18'0 0.0
2017-Apr-10 21:59S 23°58' W 046°18'1 1.4
2017-Apr-10 21:30S 23°58' W 046°18'3 6.3
2017-Apr-10 21:01S 24°00' W 046°20'4 8.8
2017-Apr-10 20:30S 24°04' W 046°22'4 7.1
2017-Apr-10 20:00S 24°07' W 046°20'2 3.4
2017-Apr-10 19:30S 24°08' W 046°18'0 0.1
2017-Apr-10 18:58S 24°08' W 046°18'0 0.0
2017-Apr-10 18:28S 24°08' W 046°18'0 0.0
2017-Apr-10 17:58S 24°08' W 046°18'0 0.0
2017-Apr-10 17:25S 24°08' W 046°18'0 0.0
2017-Apr-10 16:58S 24°08' W 046°18'0 0.0
2017-Apr-10 16:28S 24°08' W 046°18'0 0.0
2017-Apr-10 15:52S 24°08' W 046°18'0 0.0
2017-Apr-10 15:25S 24°08' W 046°18'0 0.0
2017-Apr-10 14:58S 24°08' W 046°18'0 0.0
2017-Apr-10 13:58S 24°08' W 046°18'0 0.0
2017-Apr-10 13:28S 24°08' W 046°18'0 0.0
2017-Apr-10 12:55S 24°08' W 046°18'0 0.0
2017-Apr-10 12:28S 24°08' W 046°18'0 0.0
2017-Apr-10 11:52S 24°08' W 046°18'0 0.0
2017-Apr-10 11:28S 24°08' W 046°18'0 0.0
2017-Apr-10 10:58S 24°08' W 046°18'0 0.0
2017-Apr-10 10:28S 24°08' W 046°18'0 0.0
2017-Apr-10 09:52S 24°08' W 046°18'0 0.0
2017-Apr-10 09:25S 24°08' W 046°18'0 0.0
2017-Apr-10 08:55S 24°08' W 046°18'0 0.0
2017-Apr-10 08:28S 24°08' W 046°18'0 0.0
2017-Apr-10 07:58S 24°08' W 046°18'0 0.0
2017-Apr-10 07:28S 24°08' W 046°18'0 0.0
2017-Apr-10 06:58S 24°08' W 046°18'0 0.0
2017-Apr-10 06:28S 24°08' W 046°18'0 0.0
2017-Apr-10 05:58S 24°08' W 046°18'0 0.0
2017-Apr-10 05:28S 24°08' W 046°18'0 0.0
2017-Apr-10 04:55S 24°08' W 046°18'0 0.0
2017-Apr-10 04:28S 24°08' W 046°18'0 0.1
2017-Apr-10 03:58S 24°08' W 046°18'2 3.9
2017-Apr-10 03:30S 24°08' W 046°16'4 8.4
2017-Apr-10 03:00S 24°09' W 046°12'612.6
2017-Apr-10 02:30S 24°11' W 046°05'  
Track history (hours):
 
Tides and Currents Weather Stations Pressure Air Temp Water Temp Dewpoint Dewpoint Depression Visibility Wind Speed Wind Dir Waves Ship Positions

Swift Ace

Last reported at 2017-Apr-19 15:55 UTC. Time now 2017-Apr-30 20:37 UTC.
Position S 34°47' W 057°30'.
Warning: this ship's position is 11 days out of date.

Length 200 m; draft 8.6 m.

Type: Cargo ship. MMSI: 310968322.

Date/timePositionNaut miles runAvg speedWind from/ knotsBaromVisibWave heightAir tempDewpointWater temp
2017-Apr-19 15:55S 34°47' W 057°30'512.8
2017-Apr-19 15:31S 34°45' W 057°36'713.0
2017-Apr-19 15:00S 34°44' W 057°44'5 9.6
2017-Apr-19 14:30S 34°45' W 057°50'9 9.0
2017-Apr-19 13:31S 34°40' W 057°60'510.4
2017-Apr-19 13:00S 34°39' W 058°06'510.1
2017-Apr-19 12:30S 34°37' W 058°11'  
2017-Apr-12 13:50S 27°49' W 048°05'516.0
2017-Apr-12 13:30S 27°44' W 048°03'18516.9
2017-Apr-12 02:30S 24°54' W 046°40'917.6
2017-Apr-12 02:00S 24°46' W 046°37'917.7
2017-Apr-12 01:30S 24°38' W 046°33'917.8
2017-Apr-12 01:00S 24°30' W 046°29'917.7
2017-Apr-12 00:30S 24°21' W 046°27'917.7
2017-Apr-12 00:00S 24°13' W 046°24'815.5
2017-Apr-11 23:31S 24°05' W 046°22'5 9.9
2017-Apr-11 23:00S 24°01' W 046°20'3 6.9
2017-Apr-11 22:30S 23°59' W 046°17'1 1.9
2017-Apr-11 21:59S 23°58' W 046°18'0 0.0
2017-Apr-11 21:29S 23°58' W 046°18'0 0.0
2017-Apr-11 20:56S 23°58' W 046°18'0 0.0
2017-Apr-11 20:29S 23°58' W 046°18'0 0.0
2017-Apr-11 19:59S 23°58' W 046°18'0 0.0
2017-Apr-11 19:29S 23°58' W 046°18'0 0.0
2017-Apr-11 18:59S 23°58' W 046°18'0 0.0
2017-Apr-11 18:26S 23°58' W 046°18'0 0.0
2017-Apr-11 17:59S 23°58' W 046°18'0 0.0
2017-Apr-11 17:29S 23°58' W 046°18'0 0.0
2017-Apr-11 16:59S 23°58' W 046°18'0 0.0
2017-Apr-11 16:20S 23°58' W 046°18'0 0.0
2017-Apr-11 15:59S 23°58' W 046°18'0 0.0
2017-Apr-11 15:29S 23°58' W 046°18'0 0.0
2017-Apr-11 14:59S 23°58' W 046°18'0 0.0
2017-Apr-11 14:29S 23°58' W 046°18'0 0.0
2017-Apr-11 13:29S 23°58' W 046°18'0 0.0
2017-Apr-11 12:59S 23°58' W 046°18'0 0.0
2017-Apr-11 12:26S 23°58' W 046°18'0 0.0
2017-Apr-11 11:59S 23°58' W 046°18'0 0.0
2017-Apr-11 11:29S 23°58' W 046°18'0 0.0
2017-Apr-11 10:59S 23°58' W 046°18'0 0.0
2017-Apr-11 10:26S 23°58' W 046°18'0 0.0
2017-Apr-11 09:59S 23°58' W 046°18'0 0.0
2017-Apr-11 09:29S 23°58' W 046°18'0 0.0
2017-Apr-11 08:59S 23°58' W 046°18'0 0.0
2017-Apr-11 08:29S 23°58' W 046°18'0 0.0
2017-Apr-11 07:41S 23°58' W 046°18'0 0.0
2017-Apr-11 07:29S 23°58' W 046°18'0 0.0
2017-Apr-11 06:59S 23°58' W 046°18'0 0.0
2017-Apr-11 06:29S 23°58' W 046°18'0 0.0
2017-Apr-11 05:59S 23°58' W 046°18'0 0.0
2017-Apr-11 05:29S 23°58' W 046°18'0 0.0
2017-Apr-11 04:59S 23°58' W 046°18'0 0.0
2017-Apr-11 04:29S 23°58' W 046°18'0 0.0
2017-Apr-11 03:59S 23°58' W 046°18'0 0.0
2017-Apr-11 03:29S 23°58' W 046°18'0 0.0
2017-Apr-11 02:53S 23°58' W 046°18'0 0.0
2017-Apr-11 02:29S 23°58' W 046°18'0 0.0
2017-Apr-11 01:59S 23°58' W 046°18'0 0.0
2017-Apr-11 01:23S 23°58' W 046°18'0 0.0
2017-Apr-11 00:59S 23°58' W 046°18'0 0.0
2017-Apr-11 00:29S 23°58' W 046°18'0 0.0
2017-Apr-10 23:59S 23°58' W 046°18'0 0.0
2017-Apr-10 23:29S 23°58' W 046°18'0 0.0
2017-Apr-10 22:59S 23°58' W 046°18'0 0.0
2017-Apr-10 22:23S 23°58' W 046°18'0 0.0
2017-Apr-10 21:59S 23°58' W 046°18'1 1.4
2017-Apr-10 21:30S 23°58' W 046°18'3 6.3
2017-Apr-10 21:01S 24°00' W 046°20'4 8.8
2017-Apr-10 20:30S 24°04' W 046°22'4 7.1
2017-Apr-10 20:00S 24°07' W 046°20'2 3.4
2017-Apr-10 19:30S 24°08' W 046°18'0 0.1
2017-Apr-10 18:58S 24°08' W 046°18'0 0.0
2017-Apr-10 18:28S 24°08' W 046°18'0 0.0
2017-Apr-10 17:58S 24°08' W 046°18'0 0.0
2017-Apr-10 17:25S 24°08' W 046°18'0 0.0
2017-Apr-10 16:58S 24°08' W 046°18'0 0.0
2017-Apr-10 16:28S 24°08' W 046°18'0 0.0
2017-Apr-10 15:52S 24°08' W 046°18'0 0.0
2017-Apr-10 15:25S 24°08' W 046°18'0 0.0
2017-Apr-10 14:58S 24°08' W 046°18'0 0.0
2017-Apr-10 13:58S 24°08' W 046°18'0 0.0
2017-Apr-10 13:28S 24°08' W 046°18'0 0.0
2017-Apr-10 12:55S 24°08' W 046°18'0 0.0
2017-Apr-10 12:28S 24°08' W 046°18'0 0.0
2017-Apr-10 11:52S 24°08' W 046°18'0 0.0
2017-Apr-10 11:28S 24°08' W 046°18'0 0.0
2017-Apr-10 10:58S 24°08' W 046°18'0 0.0
2017-Apr-10 10:28S 24°08' W 046°18'0 0.0
2017-Apr-10 09:52S 24°08' W 046°18'0 0.0
2017-Apr-10 09:25S 24°08' W 046°18'0 0.0
2017-Apr-10 08:55S 24°08' W 046°18'0 0.0
2017-Apr-10 08:28S 24°08' W 046°18'0 0.0
2017-Apr-10 07:58S 24°08' W 046°18'0 0.0
2017-Apr-10 07:28S 24°08' W 046°18'0 0.0
2017-Apr-10 06:58S 24°08' W 046°18'0 0.0
2017-Apr-10 06:28S 24°08' W 046°18'0 0.0
2017-Apr-10 05:58S 24°08' W 046°18'0 0.0
2017-Apr-10 05:28S 24°08' W 046°18'0 0.0
2017-Apr-10 04:55S 24°08' W 046°18'0 0.0
2017-Apr-10 04:28S 24°08' W 046°18'0 0.1
2017-Apr-10 03:58S 24°08' W 046°18'2 3.9
2017-Apr-10 03:30S 24°08' W 046°16'4 8.4
2017-Apr-10 03:00S 24°09' W 046°12'612.6
2017-Apr-10 02:30S 24°11' W 046°05'  

Dump ship's entire track history